Time;durP1;ratioP1;P1;durP2;ratioP2;P2;SDS_P1;SDS_P2;PMS_P1;PMS_P2;Temp;Humidity;BMP_temperature;BMP_pressure;BME280_temperature;BME280_humidity;BME280_pressure;Samples;Min_cycle;Max_cycle;Signal;HPM_P1;HPM_P2
2023/12/20 00:01:49;;;;;;;17.98;12.48;;;;;;;;;;754548;185;919282;-69
2023/12/20 00:04:14;;;;;;;18.63;12.90;;;;;;;;;;763600;182;920232;-69
2023/12/20 00:06:40;;;;;;;20.00;13.07;;;;;;;;;;754124;185;917486;-68
2023/12/20 00:09:06;;;;;;;19.70;13.10;;;;;;;;;;753650;185;918956;-68
2023/12/20 00:11:32;;;;;;;18.10;10.90;;;;;;;;;;756140;185;919143;-69
2023/12/20 00:13:58;;;;;;;18.73;12.80;;;;;;;;;;755321;185;943382;-69
2023/12/20 00:16:24;;;;;;;16.95;12.85;;;;;;;;;;751708;185;919385;-68
2023/12/20 00:18:49;;;;;;;16.33;10.83;;;;;;;;;;756620;185;918680;-68
2023/12/20 00:21:15;;;;;;;22.90;12.00;;;;;;;;;;739887;189;919519;-69
2023/12/20 00:23:41;;;;;;;22.03;12.00;;;;;;;;;;739002;186;921842;-69
2023/12/20 00:26:07;;;;;;;19.97;12.43;;;;;;;;;;758569;185;919406;-68
2023/12/20 00:28:33;;;;;;;19.23;10.93;;;;;;;;;;752690;185;924817;-69
2023/12/20 00:30:59;;;;;;;17.80;12.40;;;;;;;;;;750746;185;914454;-69
2023/12/20 00:33:24;;;;;;;21.80;12.13;;;;;;;;;;750746;185;919985;-69
2023/12/20 00:35:50;;;;;;;18.40;11.63;;;;;;;;;;756089;185;919251;-69
2023/12/20 00:38:16;;;;;;;19.03;12.10;;;;;;;;;;751987;185;918933;-69
2023/12/20 00:40:42;;;;;;;16.43;11.60;;;;;;;;;;750522;185;935892;-69
2023/12/20 00:43:08;;;;;;;13.43;11.10;;;;;;;;;;755312;185;920516;-68
2023/12/20 00:45:34;;;;;;;19.33;12.63;;;;;;;;;;738882;189;919369;-69
2023/12/20 00:47:59;;;;;;;18.17;11.10;;;;;;;;;;733565;190;919236;-69
2023/12/20 00:50:25;;;;;;;15.33;10.80;;;;;;;;;;759015;185;919518;-69
2023/12/20 00:52:51;;;;;;;16.70;11.27;;;;;;;;;;753077;185;919209;-69
2023/12/20 00:55:17;;;;;;;17.03;10.80;;;;;;;;;;753851;185;919410;-69
2023/12/20 00:57:44;;;;;;;17.70;11.43;;;;;;;;;;757207;185;1020336;-69
2023/12/20 01:00:10;;;;;;;18.87;10.40;;;;;;;;;;762052;182;1020324;-69
2023/12/20 01:02:36;;;;;;;15.43;10.83;;;;;;;;;;755704;184;919531;-69
2023/12/20 01:05:02;;;;;;;21.30;10.53;;;;;;;;;;755071;185;919354;-69
2023/12/20 01:07:27;;;;;;;16.10;11.33;;;;;;;;;;760135;185;919133;-69
2023/12/20 01:09:53;;;;;;;13.77;10.13;;;;;;;;;;754344;185;919778;-68
2023/12/20 01:12:20;;;;;;;15.40;11.25;;;;;;;;;;754657;185;919163;-69
2023/12/20 01:14:45;;;;;;;13.10;8.90;;;;;;;;;;759807;185;919732;-68
2023/12/20 01:19:52;;;;;;;15.63;11.00;;;;;;;;;;787696;173;816210;-63
2023/12/20 01:22:17;;;;;;;16.10;10.30;;;;;;;;;;766840;179;902497;-70
2023/12/20 01:24:43;;;;;;;17.50;11.07;;;;;;;;;;771306;179;817480;-70
2023/12/20 01:27:09;;;;;;;13.93;9.83;;;;;;;;;;770268;179;921121;-65
2023/12/20 01:29:35;;;;;;;15.47;11.13;;;;;;;;;;768924;180;918894;-64
2023/12/20 01:32:01;;;;;;;17.00;11.37;;;;;;;;;;770454;180;918854;-64
2023/12/20 01:34:27;;;;;;;15.20;10.73;;;;;;;;;;768874;181;927310;-65
2023/12/20 01:36:52;;;;;;;19.87;10.23;;;;;;;;;;763930;180;917531;-70
2023/12/20 01:39:18;;;;;;;16.40;11.77;;;;;;;;;;768779;180;923835;-63
2023/12/20 01:41:45;;;;;;;14.00;9.73;;;;;;;;;;776013;180;817916;-68
2023/12/20 01:44:10;;;;;;;16.63;10.90;;;;;;;;;;769742;180;920806;-69
2023/12/20 01:46:36;;;;;;;19.60;12.40;;;;;;;;;;769318;180;816628;-69
2023/12/20 01:49:02;;;;;;;19.57;12.47;;;;;;;;;;773792;180;918661;-63
2023/12/20 01:51:27;;;;;;;19.40;12.70;;;;;;;;;;768932;180;919152;-68
2023/12/20 01:53:53;;;;;;;19.63;12.83;;;;;;;;;;768118;180;816055;-67
2023/12/20 01:56:19;;;;;;;18.40;12.07;;;;;;;;;;774199;180;919519;-63
2023/12/20 01:58:45;;;;;;;17.23;11.20;;;;;;;;;;769841;180;942588;-69
2023/12/20 02:01:11;;;;;;;21.75;12.52;;;;;;;;;;770438;179;914615;-69
2023/12/20 02:03:37;;;;;;;20.73;12.60;;;;;;;;;;768731;180;909288;-63
2023/12/20 02:06:03;;;;;;;25.13;15.83;;;;;;;;;;775944;180;863394;-62
2023/12/20 02:08:28;;;;;;;18.00;12.20;;;;;;;;;;771043;179;919785;-62
2023/12/20 02:10:54;;;;;;;18.50;13.87;;;;;;;;;;767833;180;919133;-69
2023/12/20 02:13:20;;;;;;;19.50;12.52;;;;;;;;;;775592;179;921108;-63
2023/12/20 02:15:46;;;;;;;20.83;13.33;;;;;;;;;;766401;180;917615;-63
2023/12/20 02:18:15;;;;;;;20.10;12.50;;;;;;;;;;768750;180;919070;-62
2023/12/20 02:20:38;;;;;;;19.63;11.53;;;;;;;;;;771749;179;918933;-62
2023/12/20 02:23:04;;;;;;;19.83;12.03;;;;;;;;;;767627;180;918876;-69
2023/12/20 02:25:29;;;;;;;21.27;11.40;;;;;;;;;;770458;180;914865;-69
2023/12/20 02:27:55;;;;;;;19.73;11.67;;;;;;;;;;767617;180;919281;-63
2023/12/20 02:30:21;;;;;;;18.67;12.20;;;;;;;;;;761212;182;917768;-63
2023/12/20 02:32:47;;;;;;;19.50;12.30;;;;;;;;;;757086;180;919761;-63
2023/12/20 02:35:13;;;;;;;17.77;12.30;;;;;;;;;;767737;180;916894;-68
2023/12/20 02:37:39;;;;;;;23.00;12.17;;;;;;;;;;775730;180;921064;-62
2023/12/20 02:40:05;;;;;;;19.77;11.50;;;;;;;;;;770284;180;919665;-62
2023/12/20 02:42:31;;;;;;;23.30;12.77;;;;;;;;;;771362;180;816409;-68
2023/12/20 02:44:57;;;;;;;18.17;11.60;;;;;;;;;;774103;180;919525;-69
2023/12/20 02:47:22;;;;;;;18.37;11.90;;;;;;;;;;769033;180;916420;-69
2023/12/20 02:49:49;;;;;;;19.67;12.10;;;;;;;;;;769436;180;914445;-62
2023/12/20 02:52:14;;;;;;;15.45;10.73;;;;;;;;;;768234;180;918686;-63
2023/12/20 02:54:40;;;;;;;18.50;11.70;;;;;;;;;;774532;180;846420;-68
2023/12/20 02:57:06;;;;;;;18.63;11.53;;;;;;;;;;767499;180;921214;-63
2023/12/20 02:59:32;;;;;;;16.67;10.10;;;;;;;;;;768128;180;920407;-69
2023/12/20 03:01:58;;;;;;;18.30;11.50;;;;;;;;;;773274;179;974194;-70
2023/12/20 03:04:23;;;;;;;16.97;11.63;;;;;;;;;;771093;180;817672;-68
2023/12/20 03:06:49;;;;;;;18.23;11.43;;;;;;;;;;772579;179;918733;-68
2023/12/20 03:09:15;;;;;;;15.50;10.57;;;;;;;;;;771985;179;815638;-67
2023/12/20 03:11:41;;;;;;;19.47;11.47;;;;;;;;;;768556;180;885285;-68
2023/12/20 03:14:07;;;;;;;17.48;10.52;;;;;;;;;;766357;180;918874;-68
2023/12/20 03:16:33;;;;;;;20.40;13.10;;;;;;;;;;772474;180;917229;-61
2023/12/20 03:18:58;;;;;;;16.30;10.67;;;;;;;;;;769743;179;899962;-68
2023/12/20 03:21:24;;;;;;;19.97;12.70;;;;;;;;;;766941;181;914989;-68
2023/12/20 03:23:50;;;;;;;17.93;10.17;;;;;;;;;;769603;180;918623;-62
2023/12/20 03:26:16;;;;;;;19.30;11.53;;;;;;;;;;775052;180;917279;-62
2023/12/20 03:28:42;;;;;;;20.17;11.73;;;;;;;;;;766188;180;915238;-68
2023/12/20 03:31:08;;;;;;;18.55;12.25;;;;;;;;;;768178;180;923463;-63
2023/12/20 03:33:34;;;;;;;22.40;11.93;;;;;;;;;;772722;180;918410;-64
2023/12/20 03:35:59;;;;;;;18.20;13.07;;;;;;;;;;768195;180;920245;-63
2023/12/20 03:38:25;;;;;;;24.97;13.63;;;;;;;;;;769281;180;818282;-63
2023/12/20 03:40:51;;;;;;;18.77;13.80;;;;;;;;;;774055;180;1009533;-66
2023/12/20 03:43:17;;;;;;;22.03;13.87;;;;;;;;;;772069;179;918580;-64
2023/12/20 03:45:43;;;;;;;24.10;13.77;;;;;;;;;;763391;180;911985;-67
2023/12/20 03:48:09;;;;;;;19.83;12.25;;;;;;;;;;771088;180;919431;-64
2023/12/20 03:50:35;;;;;;;23.20;15.60;;;;;;;;;;768772;179;918306;-62
2023/12/20 03:53:01;;;;;;;23.90;15.20;;;;;;;;;;764076;180;920941;-63
2023/12/20 03:55:27;;;;;;;20.73;14.57;;;;;;;;;;770409;180;907490;-64
2023/12/20 03:57:52;;;;;;;22.60;13.90;;;;;;;;;;773931;180;918602;-67
2023/12/20 04:00:18;;;;;;;22.10;15.90;;;;;;;;;;769839;180;917014;-64
2023/12/20 04:02:44;;;;;;;23.87;16.03;;;;;;;;;;769164;180;916944;-67
2023/12/20 04:05:10;;;;;;;24.45;15.77;;;;;;;;;;776667;179;856409;-67
2023/12/20 04:07:36;;;;;;;22.97;16.17;;;;;;;;;;759258;181;919057;-67
2023/12/20 04:10:03;;;;;;;21.05;13.50;;;;;;;;;;768493;180;912011;-67
2023/12/20 04:12:28;;;;;;;21.63;12.47;;;;;;;;;;773390;180;938843;-64
2023/12/20 04:14:53;;;;;;;21.03;13.73;;;;;;;;;;771528;180;918405;-68
2023/12/20 04:17:19;;;;;;;26.80;13.37;;;;;;;;;;768658;180;918308;-68
2023/12/20 04:19:45;;;;;;;19.93;14.10;;;;;;;;;;765041;180;919409;-64
2023/12/20 04:22:11;;;;;;;21.03;13.87;;;;;;;;;;759487;183;809584;-63
2023/12/20 04:24:37;;;;;;;30.67;15.93;;;;;;;;;;753033;180;918774;-63
2023/12/20 04:27:03;;;;;;;22.03;14.67;;;;;;;;;;768243;180;919688;-67
2023/12/20 04:29:29;;;;;;;22.13;14.63;;;;;;;;;;773867;180;919497;-67
2023/12/20 04:31:55;;;;;;;24.93;15.50;;;;;;;;;;770756;180;917474;-64
2023/12/20 04:34:20;;;;;;;22.70;16.30;;;;;;;;;;769889;180;918433;-67
2023/12/20 04:36:46;;;;;;;28.55;17.37;;;;;;;;;;774856;179;817764;-67
2023/12/20 04:39:12;;;;;;;29.67;16.90;;;;;;;;;;768835;180;914974;-63
2023/12/20 04:41:38;;;;;;;26.73;17.03;;;;;;;;;;770167;180;918622;-67
2023/12/20 04:44:04;;;;;;;21.43;15.40;;;;;;;;;;773293;180;920901;-66
2023/12/20 04:46:29;;;;;;;26.33;15.63;;;;;;;;;;769486;180;893916;-64
2023/12/20 04:48:55;;;;;;;23.03;15.00;;;;;;;;;;766708;180;917370;-67
2023/12/20 04:51:21;;;;;;;26.35;14.80;;;;;;;;;;768485;180;925963;-67
2023/12/20 04:53:47;;;;;;;18.37;12.67;;;;;;;;;;776022;179;919500;-67
2023/12/20 04:56:13;;;;;;;20.60;13.13;;;;;;;;;;771947;180;919246;-67
2023/12/20 04:58:39;;;;;;;23.37;13.73;;;;;;;;;;769763;180;909048;-67
2023/12/20 05:01:05;;;;;;;21.03;13.93;;;;;;;;;;771666;179;918940;-64
2023/12/20 05:03:31;;;;;;;24.10;15.93;;;;;;;;;;769335;180;918710;-68
2023/12/20 05:05:58;;;;;;;24.70;15.00;;;;;;;;;;770216;180;919606;-65
2023/12/20 05:08:23;;;;;;;26.30;13.63;;;;;;;;;;772077;179;916248;-65
2023/12/20 05:10:49;;;;;;;25.53;12.77;;;;;;;;;;764923;179;885746;-66
2023/12/20 05:13:15;;;;;;;20.80;14.73;;;;;;;;;;767616;179;826469;-64
2023/12/20 05:15:40;;;;;;;24.17;15.33;;;;;;;;;;767516;180;910453;-67
2023/12/20 05:18:06;;;;;;;25.70;15.63;;;;;;;;;;775725;180;905715;-67
2023/12/20 05:20:32;;;;;;;22.70;14.00;;;;;;;;;;769893;180;915594;-63
2023/12/20 05:22:58;;;;;;;28.43;19.00;;;;;;;;;;770122;180;913362;-64
2023/12/20 05:25:24;;;;;;;25.70;16.57;;;;;;;;;;773949;180;916914;-65
2023/12/20 05:27:50;;;;;;;25.50;17.40;;;;;;;;;;769089;180;926183;-64
2023/12/20 05:30:15;;;;;;;27.58;16.15;;;;;;;;;;767663;180;916800;-64
2023/12/20 05:32:41;;;;;;;22.40;15.20;;;;;;;;;;771032;180;912720;-67
2023/12/20 05:35:07;;;;;;;26.12;17.92;;;;;;;;;;765626;180;920861;-67
2023/12/20 05:37:33;;;;;;;24.77;16.13;;;;;;;;;;772897;179;736580;-68
2023/12/20 05:39:59;;;;;;;26.60;17.37;;;;;;;;;;772286;180;632466;-65
2023/12/20 05:42:25;;;;;;;27.43;17.90;;;;;;;;;;766437;183;634097;-69
2023/12/20 05:44:51;;;;;;;29.40;19.37;;;;;;;;;;773478;179;634589;-68
2023/12/20 05:47:16;;;;;;;28.98;17.77;;;;;;;;;;765903;180;898597;-68
2023/12/20 05:49:42;;;;;;;31.87;20.40;;;;;;;;;;770391;180;813548;-68
2023/12/20 05:52:08;;;;;;;30.77;19.40;;;;;;;;;;770972;180;897838;-65
2023/12/20 05:54:34;;;;;;;29.83;19.53;;;;;;;;;;773241;179;623319;-68
2023/12/20 05:57:00;;;;;;;34.63;20.97;;;;;;;;;;772444;181;684963;-67
2023/12/20 05:59:26;;;;;;;33.57;19.07;;;;;;;;;;772047;180;630858;-65
2023/12/20 06:01:51;;;;;;;34.63;19.50;;;;;;;;;;771570;180;637537;-67
2023/12/20 06:04:17;;;;;;;27.77;18.60;;;;;;;;;;773341;180;914428;-67
2023/12/20 06:06:43;;;;;;;32.00;21.07;;;;;;;;;;768551;179;915773;-65
2023/12/20 06:09:09;;;;;;;28.00;18.53;;;;;;;;;;760600;183;917365;-64
2023/12/20 06:11:35;;;;;;;28.97;20.20;;;;;;;;;;754038;183;815561;-64
2023/12/20 06:14:01;;;;;;;28.42;19.50;;;;;;;;;;763602;183;918324;-65
2023/12/20 06:16:26;;;;;;;32.00;19.87;;;;;;;;;;755438;183;917250;-68
2023/12/20 06:18:53;;;;;;;29.97;20.40;;;;;;;;;;751793;183;1021709;-67
2023/12/20 06:21:18;;;;;;;31.47;19.30;;;;;;;;;;759063;183;908303;-69
2023/12/20 06:23:44;;;;;;;36.37;20.00;;;;;;;;;;755170;183;915901;-65
2023/12/20 06:26:10;;;;;;;26.60;19.33;;;;;;;;;;769999;180;911561;-68
2023/12/20 06:28:36;;;;;;;31.80;17.47;;;;;;;;;;774628;179;922315;-68
2023/12/20 06:31:02;;;;;;;26.83;18.80;;;;;;;;;;770665;179;918196;-65
2023/12/20 06:33:29;;;;;;;32.13;18.70;;;;;;;;;;772955;179;959276;-68
2023/12/20 06:35:53;;;;;;;28.10;18.67;;;;;;;;;;769467;179;919153;-65
2023/12/20 06:38:19;;;;;;;29.30;19.80;;;;;;;;;;771593;180;918339;-66
2023/12/20 06:40:45;;;;;;;28.20;17.10;;;;;;;;;;754196;180;917868;-65
2023/12/20 06:43:11;;;;;;;26.97;18.63;;;;;;;;;;766811;180;918593;-67
2023/12/20 06:45:37;;;;;;;27.77;17.52;;;;;;;;;;774022;180;913387;-65
2023/12/20 06:48:03;;;;;;;28.67;17.47;;;;;;;;;;771186;180;940017;-68
2023/12/20 06:50:28;;;;;;;25.50;17.13;;;;;;;;;;769954;180;918109;-65
2023/12/20 06:52:54;;;;;;;28.67;19.10;;;;;;;;;;774808;180;918510;-67
2023/12/20 06:55:20;;;;;;;30.03;18.37;;;;;;;;;;768089;180;920672;-65
2023/12/20 06:57:46;;;;;;;30.25;19.33;;;;;;;;;;770064;180;917730;-65
2023/12/20 07:00:12;;;;;;;27.23;19.03;;;;;;;;;;772693;180;878892;-65
2023/12/20 07:02:38;;;;;;;27.83;17.77;;;;;;;;;;768385;179;923680;-67
2023/12/20 07:05:04;;;;;;;27.67;18.60;;;;;;;;;;768311;180;843342;-65
2023/12/20 07:07:30;;;;;;;30.27;19.47;;;;;;;;;;768462;179;916796;-66
2023/12/20 07:09:56;;;;;;;29.70;18.33;;;;;;;;;;774169;180;818784;-67
2023/12/20 07:12:22;;;;;;;34.30;20.30;;;;;;;;;;770271;180;873262;-68
2023/12/20 07:14:48;;;;;;;33.23;20.03;;;;;;;;;;768239;179;915749;-67
2023/12/20 07:17:15;;;;;;;29.33;17.87;;;;;;;;;;768341;180;754024;-67
2023/12/20 07:19:40;;;;;;;35.87;20.23;;;;;;;;;;768674;180;912268;-65
2023/12/20 07:22:06;;;;;;;24.50;17.20;;;;;;;;;;770054;180;829365;-65
2023/12/20 07:24:32;;;;;;;32.83;21.33;;;;;;;;;;775903;180;815834;-68
2023/12/20 07:26:57;;;;;;;25.77;17.97;;;;;;;;;;770199;180;917930;-68
2023/12/20 07:29:23;;;;;;;28.42;17.92;;;;;;;;;;773162;180;814129;-68
2023/12/20 07:31:49;;;;;;;28.13;18.20;;;;;;;;;;773558;180;643580;-68
2023/12/20 07:34:15;;;;;;;30.90;20.80;;;;;;;;;;777823;180;630457;-69
2023/12/20 07:36:41;;;;;;;27.67;18.30;;;;;;;;;;767357;180;922629;-68
2023/12/20 07:39:07;;;;;;;35.60;20.13;;;;;;;;;;767332;180;1034307;-68
2023/12/20 07:41:32;;;;;;;27.50;19.70;;;;;;;;;;776070;180;709683;-67
2023/12/20 07:43:59;;;;;;;27.80;17.77;;;;;;;;;;770880;180;915229;-69
2023/12/20 07:46:24;;;;;;;24.02;16.17;;;;;;;;;;769094;180;918669;-64
2023/12/20 07:48:50;;;;;;;29.60;18.33;;;;;;;;;;774174;180;832965;-68
2023/12/20 07:51:16;;;;;;;27.90;18.07;;;;;;;;;;768900;180;911735;-67
2023/12/20 07:53:42;;;;;;;26.70;17.97;;;;;;;;;;771060;180;801772;-67
2023/12/20 07:56:16;;;;;;;28.00;18.77;;;;;;;;;;777626;180;885241;-65
2023/12/20 07:58:42;;;;;;;30.40;18.47;;;;;;;;;;766951;179;811138;-65
2023/12/20 08:01:08;;;;;;;29.70;17.40;;;;;;;;;;770339;179;629735;-65
2023/12/20 08:03:34;;;;;;;28.50;17.90;;;;;;;;;;773786;180;617946;-68
2023/12/20 08:06:00;;;;;;;27.77;15.67;;;;;;;;;;777515;179;618878;-68
2023/12/20 08:08:25;;;;;;;25.50;16.97;;;;;;;;;;771933;180;631454;-68
2023/12/20 08:10:51;;;;;;;23.20;15.90;;;;;;;;;;775043;180;634139;-65
2023/12/20 08:13:17;;;;;;;32.33;18.70;;;;;;;;;;775027;180;625604;-66
2023/12/20 08:15:43;;;;;;;32.23;19.23;;;;;;;;;;772738;180;616634;-68
2023/12/20 08:18:09;;;;;;;26.77;17.03;;;;;;;;;;767348;181;634140;-69
2023/12/20 08:20:34;;;;;;;25.23;16.40;;;;;;;;;;773078;180;628158;-69
2023/12/20 08:23:00;;;;;;;24.83;16.03;;;;;;;;;;776264;180;663121;-65
2023/12/20 08:25:27;;;;;;;25.23;15.00;;;;;;;;;;770669;180;918731;-63
2023/12/20 08:27:52;;;;;;;22.83;14.60;;;;;;;;;;772792;179;910457;-68
2023/12/20 08:30:20;;;;;;;25.73;16.90;;;;;;;;;;776886;179;815072;-65
2023/12/20 08:32:44;;;;;;;22.43;15.90;;;;;;;;;;768885;180;916935;-69
2023/12/20 08:35:10;;;;;;;21.87;16.23;;;;;;;;;;770829;180;946558;-67
2023/12/20 08:37:35;;;;;;;22.30;14.87;;;;;;;;;;774183;180;917332;-68
2023/12/20 08:40:01;;;;;;;23.47;13.60;;;;;;;;;;766037;179;915423;-68
2023/12/20 08:42:31;;;;;;;27.93;14.50;;;;;;;;;;769225;180;822449;-67
2023/12/20 08:44:53;;;;;;;20.53;13.97;;;;;;;;;;767464;180;919491;-67
2023/12/20 08:47:19;;;;;;;30.17;14.70;;;;;;;;;;772971;180;918960;-67
2023/12/20 08:49:46;;;;;;;20.40;13.30;;;;;;;;;;768024;180;915879;-68
2023/12/20 08:52:10;;;;;;;18.67;13.33;;;;;;;;;;770704;180;817480;-68
2023/12/20 08:54:36;;;;;;;19.33;13.87;;;;;;;;;;773234;180;920290;-65
2023/12/20 08:57:02;;;;;;;18.80;12.40;;;;;;;;;;766958;180;813226;-68
2023/12/20 08:59:28;;;;;;;22.67;13.63;;;;;;;;;;766271;181;814583;-65
2023/12/20 09:01:56;;;;;;;19.40;12.57;;;;;;;;;;769303;180;1023286;-67
2023/12/20 09:04:20;;;;;;;19.53;13.33;;;;;;;;;;767686;180;914241;-67
2023/12/20 09:06:46;;;;;;;19.97;14.43;;;;;;;;;;769155;180;815837;-67
2023/12/20 09:09:13;;;;;;;22.50;13.60;;;;;;;;;;769717;180;914740;-66
2023/12/20 09:11:37;;;;;;;22.57;13.80;;;;;;;;;;772854;181;815547;-66
2023/12/20 09:14:03;;;;;;;16.02;12.10;;;;;;;;;;762050;181;917994;-68
2023/12/20 09:16:29;;;;;;;19.10;12.17;;;;;;;;;;763747;181;918860;-68
2023/12/20 09:18:55;;;;;;;20.40;13.07;;;;;;;;;;775028;179;910138;-68
2023/12/20 09:21:21;;;;;;;19.23;13.03;;;;;;;;;;754963;183;921999;-64
2023/12/20 09:23:46;;;;;;;17.80;12.30;;;;;;;;;;748485;185;914116;-68
2023/12/20 09:26:12;;;;;;;18.40;11.80;;;;;;;;;;769403;180;914778;-68
2023/12/20 09:28:40;;;;;;;20.83;13.17;;;;;;;;;;769691;180;915021;-64
2023/12/20 09:31:04;;;;;;;19.17;12.48;;;;;;;;;;769601;180;915756;-65
2023/12/20 09:33:30;;;;;;;18.93;11.77;;;;;;;;;;774317;180;776906;-68
2023/12/20 09:35:56;;;;;;;17.43;11.90;;;;;;;;;;766675;180;915102;-65
2023/12/20 09:38:22;;;;;;;25.10;13.90;;;;;;;;;;766026;180;911760;-67
2023/12/20 09:40:47;;;;;;;22.23;13.23;;;;;;;;;;769535;180;917148;-67
2023/12/20 09:43:14;;;;;;;21.87;14.23;;;;;;;;;;773920;180;927622;-66
2023/12/20 09:45:40;;;;;;;21.10;13.40;;;;;;;;;;768749;179;918124;-65
2023/12/20 09:48:06;;;;;;;20.83;13.43;;;;;;;;;;768955;179;915217;-67
2023/12/20 09:50:33;;;;;;;20.40;13.87;;;;;;;;;;775114;180;812869;-67
2023/12/20 09:52:59;;;;;;;22.27;13.43;;;;;;;;;;769456;179;865055;-66
2023/12/20 09:55:23;;;;;;;22.30;13.63;;;;;;;;;;767041;179;915894;-66
2023/12/20 09:57:49;;;;;;;21.60;14.87;;;;;;;;;;774128;180;920355;-67
2023/12/20 10:00:15;;;;;;;22.70;15.10;;;;;;;;;;770232;180;949859;-67
2023/12/20 10:02:42;;;;;;;20.00;13.43;;;;;;;;;;768331;180;1021520;-67
2023/12/20 10:05:08;;;;;;;20.80;13.57;;;;;;;;;;771403;179;953289;-67
2023/12/20 10:07:35;;;;;;;20.90;14.13;;;;;;;;;;773395;180;645593;-66
2023/12/20 10:10:02;;;;;;;24.43;15.30;;;;;;;;;;769068;179;799254;-66
2023/12/20 10:12:27;;;;;;;18.80;13.37;;;;;;;;;;765971;180;1165026;-71
2023/12/20 10:14:53;;;;;;;24.43;14.97;;;;;;;;;;774231;180;916717;-64
2023/12/20 10:17:19;;;;;;;23.30;15.30;;;;;;;;;;770148;179;855623;-68
2023/12/20 10:19:44;;;;;;;19.60;13.70;;;;;;;;;;768415;180;918830;-67
2023/12/20 10:22:10;;;;;;;22.10;14.30;;;;;;;;;;773593;180;848417;-67
2023/12/20 10:24:36;;;;;;;23.67;15.00;;;;;;;;;;769987;179;921735;-67
2023/12/20 10:27:04;;;;;;;18.60;13.13;;;;;;;;;;770307;180;915509;-65
2023/12/20 10:29:33;;;;;;;20.27;14.07;;;;;;;;;;768112;180;919326;-67
2023/12/20 10:31:59;;;;;;;23.40;15.70;;;;;;;;;;776000;179;700730;-64
2023/12/20 10:34:24;;;;;;;23.60;14.63;;;;;;;;;;769941;179;695586;-67
2023/12/20 10:36:50;;;;;;;19.17;13.37;;;;;;;;;;769244;180;815604;-65
2023/12/20 10:39:16;;;;;;;21.33;14.70;;;;;;;;;;776036;180;624001;-65
2023/12/20 10:41:42;;;;;;;20.20;14.10;;;;;;;;;;770205;179;641491;-65
2023/12/20 10:44:08;;;;;;;21.47;15.57;;;;;;;;;;771877;180;626565;-67
2023/12/20 10:46:34;;;;;;;22.63;13.93;;;;;;;;;;775154;181;629564;-65
2023/12/20 10:49:00;;;;;;;19.17;14.17;;;;;;;;;;772089;180;618871;-65
2023/12/20 10:51:26;;;;;;;18.57;13.57;;;;;;;;;;773742;178;631085;-67
2023/12/20 10:53:52;;;;;;;19.90;13.97;;;;;;;;;;767605;180;919231;-67
2023/12/20 10:56:18;;;;;;;18.00;11.60;;;;;;;;;;772366;180;934667;-69
2023/12/20 10:58:44;;;;;;;18.77;13.40;;;;;;;;;;771351;180;918655;-63
2023/12/20 11:01:10;;;;;;;21.10;13.33;;;;;;;;;;769600;180;919361;-64
2023/12/20 11:03:37;;;;;;;18.23;12.90;;;;;;;;;;774086;180;919339;-68
2023/12/20 11:06:06;;;;;;;20.60;12.80;;;;;;;;;;771502;180;920998;-64
2023/12/20 11:08:32;;;;;;;15.90;11.60;;;;;;;;;;768750;180;912381;-64
2023/12/20 11:11:00;;;;;;;18.20;12.77;;;;;;;;;;770397;180;821045;-67
2023/12/20 11:13:26;;;;;;;19.57;11.00;;;;;;;;;;767796;180;918202;-67
2023/12/20 11:15:52;;;;;;;17.47;11.67;;;;;;;;;;764794;180;903416;-68
2023/12/20 11:18:18;;;;;;;16.33;10.87;;;;;;;;;;769824;180;853286;-68
2023/12/20 11:20:43;;;;;;;18.17;10.83;;;;;;;;;;777567;180;633288;-64
2023/12/20 11:23:09;;;;;;;17.60;12.45;;;;;;;;;;768985;180;920993;-63
2023/12/20 11:25:51;;;;;;;19.10;12.43;;;;;;;;;;768727;180;918502;-68
2023/12/20 11:28:17;;;;;;;19.60;12.80;;;;;;;;;;765046;180;922233;-64
2023/12/20 11:30:43;;;;;;;22.53;13.20;;;;;;;;;;772569;180;872719;-68
2023/12/20 11:33:09;;;;;;;17.23;12.47;;;;;;;;;;769585;180;907932;-64
2023/12/20 11:35:36;;;;;;;19.87;12.30;;;;;;;;;;769602;180;865347;-64
2023/12/20 11:38:01;;;;;;;17.55;12.37;;;;;;;;;;772788;180;918847;-64
2023/12/20 11:40:27;;;;;;;14.73;10.53;;;;;;;;;;769781;180;908641;-68
2023/12/20 11:42:53;;;;;;;16.60;11.07;;;;;;;;;;761872;180;1023078;-67
2023/12/20 11:45:21;;;;;;;18.67;11.70;;;;;;;;;;766726;180;926184;-68
2023/12/20 11:47:44;;;;;;;17.10;11.33;;;;;;;;;;774275;180;908519;-63
2023/12/20 11:50:10;;;;;;;19.80;11.20;;;;;;;;;;769418;180;818663;-64
2023/12/20 11:52:36;;;;;;;17.80;11.60;;;;;;;;;;766575;179;913325;-67
2023/12/20 11:55:03;;;;;;;16.47;10.10;;;;;;;;;;770807;179;918436;-64
2023/12/20 11:57:27;;;;;;;14.27;9.70;;;;;;;;;;770010;180;722713;-64
2023/12/20 11:59:53;;;;;;;18.97;12.30;;;;;;;;;;768991;180;914331;-64
2023/12/20 12:02:19;;;;;;;15.03;9.10;;;;;;;;;;774698;179;818258;-69
2023/12/20 12:04:45;;;;;;;22.63;12.80;;;;;;;;;;766686;179;919336;-63
2023/12/20 12:07:11;;;;;;;18.23;12.30;;;;;;;;;;768426;180;908971;-69
2023/12/20 12:09:37;;;;;;;22.17;10.00;;;;;;;;;;769984;180;916309;-63
2023/12/20 12:12:03;;;;;;;13.53;10.90;;;;;;;;;;773842;180;922179;-63
2023/12/20 12:14:29;;;;;;;18.00;11.83;;;;;;;;;;757164;182;921681;-68
2023/12/20 12:16:55;;;;;;;16.33;11.55;;;;;;;;;;756519;183;932414;-63
2023/12/20 12:19:21;;;;;;;16.90;11.10;;;;;;;;;;773700;180;917523;-68
2023/12/20 12:21:46;;;;;;;17.63;13.30;;;;;;;;;;771687;180;917580;-68
2023/12/20 12:24:12;;;;;;;17.13;11.40;;;;;;;;;;768878;180;918624;-68
2023/12/20 12:26:38;;;;;;;18.77;10.10;;;;;;;;;;772213;179;817336;-63
2023/12/20 12:29:04;;;;;;;14.27;10.27;;;;;;;;;;768664;180;816976;-68
2023/12/20 12:31:30;;;;;;;16.30;10.47;;;;;;;;;;768781;180;836308;-68
2023/12/20 12:33:56;;;;;;;17.45;11.70;;;;;;;;;;771317;180;816810;-63
2023/12/20 12:36:22;;;;;;;14.47;9.87;;;;;;;;;;767740;180;818703;-63
2023/12/20 12:38:48;;;;;;;14.73;9.70;;;;;;;;;;770853;179;826698;-68
2023/12/20 12:41:15;;;;;;;17.30;10.87;;;;;;;;;;765779;180;918787;-69
2023/12/20 12:43:39;;;;;;;16.60;10.70;;;;;;;;;;773547;180;917365;-63
2023/12/20 12:46:05;;;;;;;17.50;12.00;;;;;;;;;;769399;180;817847;-63
2023/12/20 12:48:31;;;;;;;18.70;11.17;;;;;;;;;;768493;180;919510;-63
2023/12/20 12:50:59;;;;;;;19.97;12.30;;;;;;;;;;774271;180;721784;-69
2023/12/20 12:53:23;;;;;;;15.07;9.70;;;;;;;;;;766171;180;918332;-69
2023/12/20 12:55:49;;;;;;;13.43;9.70;;;;;;;;;;768681;180;813080;-68
2023/12/20 12:58:15;;;;;;;16.07;10.43;;;;;;;;;;775944;180;816123;-62
2023/12/20 13:00:42;;;;;;;18.10;10.93;;;;;;;;;;768240;179;816787;-63
2023/12/20 13:03:07;;;;;;;14.57;10.23;;;;;;;;;;770975;180;817487;-63
2023/12/20 13:05:32;;;;;;;15.00;9.70;;;;;;;;;;772127;179;623359;-63
2023/12/20 13:07:58;;;;;;;16.67;10.87;;;;;;;;;;774024;180;717517;-69
2023/12/20 13:10:24;;;;;;;15.20;11.37;;;;;;;;;;767919;180;912732;-62
2023/12/20 13:12:50;;;;;;;14.50;10.47;;;;;;;;;;771196;180;615714;-68
2023/12/20 13:15:16;;;;;;;16.70;11.90;;;;;;;;;;778794;179;632427;-63
2023/12/20 13:17:42;;;;;;;16.10;11.60;;;;;;;;;;765487;179;789282;-63
2023/12/20 13:20:08;;;;;;;20.00;12.37;;;;;;;;;;765960;180;913359;-68
2023/12/20 13:22:34;;;;;;;35.70;20.40;;;;;;;;;;775058;180;883048;-69
2023/12/20 13:25:00;;;;;;;22.70;14.83;;;;;;;;;;773851;179;917592;-68
2023/12/20 13:27:26;;;;;;;21.30;12.90;;;;;;;;;;756501;183;915028;-70
2023/12/20 13:29:52;;;;;;;21.03;12.80;;;;;;;;;;768990;181;918561;-63
2023/12/20 13:32:19;;;;;;;19.47;11.20;;;;;;;;;;771485;180;709924;-71
2023/12/20 13:34:43;;;;;;;16.00;12.50;;;;;;;;;;767279;180;821062;-63
2023/12/20 13:37:09;;;;;;;18.80;12.00;;;;;;;;;;768263;179;825186;-63
2023/12/20 13:39:35;;;;;;;18.00;10.97;;;;;;;;;;771875;180;811110;-70
2023/12/20 13:42:01;;;;;;;21.20;12.87;;;;;;;;;;765757;180;814636;-62
2023/12/20 13:44:27;;;;;;;19.55;12.98;;;;;;;;;;771283;179;869041;-63
2023/12/20 13:46:53;;;;;;;16.00;12.43;;;;;;;;;;775929;179;768069;-63
2023/12/20 13:49:18;;;;;;;19.77;13.17;;;;;;;;;;770961;179;812542;-68
2023/12/20 13:51:44;;;;;;;14.27;9.87;;;;;;;;;;767307;179;918958;-68
2023/12/20 13:54:11;;;;;;;15.43;10.10;;;;;;;;;;769624;180;918816;-67
2023/12/20 13:56:37;;;;;;;16.73;9.07;;;;;;;;;;770183;180;737716;-63
2023/12/20 13:59:03;;;;;;;13.80;9.60;;;;;;;;;;763888;181;815666;-63